sensor_id;sensor_type;location;lat;lon;timestamp;P1;durP1;ratioP1;P2;durP2;ratioP2
11865;SDS011;5992;52.744;6.898;2023-03-24T00:01:10;4.73;;;1.83;;
11865;SDS011;5992;52.744;6.898;2023-03-24T00:04:34;4.35;;;1.90;;
11865;SDS011;5992;52.744;6.898;2023-03-24T00:07:47;3.13;;;2.23;;
11865;SDS011;5992;52.744;6.898;2023-03-24T00:14:07;2.33;;;1.83;;
11865;SDS011;5992;52.744;6.898;2023-03-24T00:17:22;2.70;;;2.00;;
11865;SDS011;5992;52.744;6.898;2023-03-24T00:20:34;4.07;;;1.93;;
11865;SDS011;5992;52.744;6.898;2023-03-24T00:23:59;2.55;;;2.10;;
11865;SDS011;5992;52.744;6.898;2023-03-24T00:27:00;2.70;;;1.80;;
11865;SDS011;5992;52.744;6.898;2023-03-24T00:30:25;4.57;;;1.93;;
11865;SDS011;5992;52.744;6.898;2023-03-24T00:33:38;1.97;;;1.80;;
11865;SDS011;5992;52.744;6.898;2023-03-24T00:37:03;4.70;;;1.80;;
11865;SDS011;5992;52.744;6.898;2023-03-24T00:40:27;4.10;;;2.00;;
11865;SDS011;5992;52.744;6.898;2023-03-24T00:43:39;2.20;;;1.60;;
11865;SDS011;5992;52.744;6.898;2023-03-24T00:46:51;3.67;;;1.90;;
11865;SDS011;5992;52.744;6.898;2023-03-24T00:50:17;3.43;;;1.93;;
11865;SDS011;5992;52.744;6.898;2023-03-24T00:53:29;2.23;;;1.70;;
11865;SDS011;5992;52.744;6.898;2023-03-24T00:56:41;4.80;;;2.13;;
11865;SDS011;5992;52.744;6.898;2023-03-24T00:59:42;2.80;;;1.53;;
11865;SDS011;5992;52.744;6.898;2023-03-24T01:02:54;5.07;;;1.90;;
11865;SDS011;5992;52.744;6.898;2023-03-24T01:06:19;2.10;;;1.70;;
11865;SDS011;5992;52.744;6.898;2023-03-24T01:09:44;3.90;;;2.10;;
11865;SDS011;5992;52.744;6.898;2023-03-24T01:12:56;3.73;;;1.53;;
11865;SDS011;5992;52.744;6.898;2023-03-24T01:16:20;3.20;;;1.90;;
11865;SDS011;5992;52.744;6.898;2023-03-24T01:19:21;2.95;;;2.30;;
11865;SDS011;5992;52.744;6.898;2023-03-24T01:22:34;3.30;;;1.80;;
11865;SDS011;5992;52.744;6.898;2023-03-24T01:25:47;1.60;;;1.50;;
11865;SDS011;5992;52.744;6.898;2023-03-24T01:29:12;2.10;;;1.97;;
11865;SDS011;5992;52.744;6.898;2023-03-24T01:32:12;2.87;;;2.10;;
11865;SDS011;5992;52.744;6.898;2023-03-24T01:35:25;4.27;;;2.13;;
11865;SDS011;5992;52.744;6.898;2023-03-24T01:38:38;2.60;;;1.93;;
11865;SDS011;5992;52.744;6.898;2023-03-24T01:42:02;2.53;;;1.80;;
11865;SDS011;5992;52.744;6.898;2023-03-24T01:45:39;2.10;;;1.90;;
11865;SDS011;5992;52.744;6.898;2023-03-24T01:49:03;2.40;;;2.10;;
11865;SDS011;5992;52.744;6.898;2023-03-24T01:52:19;3.10;;;1.63;;
11865;SDS011;5992;52.744;6.898;2023-03-24T01:55:46;4.30;;;2.40;;
11865;SDS011;5992;52.744;6.898;2023-03-24T01:59:12;2.40;;;1.50;;
11865;SDS011;5992;52.744;6.898;2023-03-24T02:02:35;1.70;;;1.60;;
11865;SDS011;5992;52.744;6.898;2023-03-24T02:06:02;2.27;;;1.83;;
11865;SDS011;5992;52.744;6.898;2023-03-24T02:09:26;1.83;;;1.70;;
11865;SDS011;5992;52.744;6.898;2023-03-24T02:12:41;2.67;;;2.00;;
11865;SDS011;5992;52.744;6.898;2023-03-24T02:15:56;2.17;;;1.93;;
11865;SDS011;5992;52.744;6.898;2023-03-24T02:19:33;3.37;;;1.93;;
11865;SDS011;5992;52.744;6.898;2023-03-24T02:26:51;1.90;;;1.80;;
11865;SDS011;5992;52.744;6.898;2023-03-24T02:37:10;3.50;;;2.20;;
11865;SDS011;5992;52.744;6.898;2023-03-24T02:40:36;1.85;;;1.65;;
11865;SDS011;5992;52.744;6.898;2023-03-24T02:46:52;2.80;;;2.20;;
11865;SDS011;5992;52.744;6.898;2023-03-24T02:50:16;2.30;;;2.10;;
11865;SDS011;5992;52.744;6.898;2023-03-24T02:53:43;1.80;;;1.70;;
11865;SDS011;5992;52.744;6.898;2023-03-24T02:57:09;1.90;;;1.63;;
11865;SDS011;5992;52.744;6.898;2023-03-24T03:00:37;4.20;;;1.90;;
11865;SDS011;5992;52.744;6.898;2023-03-24T03:04:07;2.07;;;1.73;;
11865;SDS011;5992;52.744;6.898;2023-03-24T03:07:19;3.35;;;1.90;;
11865;SDS011;5992;52.744;6.898;2023-03-24T03:10:45;1.80;;;1.60;;
11865;SDS011;5992;52.744;6.898;2023-03-24T03:14:10;2.13;;;1.73;;
11865;SDS011;5992;52.744;6.898;2023-03-24T03:17:35;2.13;;;1.70;;
11865;SDS011;5992;52.744;6.898;2023-03-24T03:20:47;4.05;;;1.90;;
11865;SDS011;5992;52.744;6.898;2023-03-24T03:24:11;2.10;;;1.80;;
11865;SDS011;5992;52.744;6.898;2023-03-24T03:27:23;1.90;;;1.80;;
11865;SDS011;5992;52.744;6.898;2023-03-24T03:30:53;1.73;;;1.63;;
11865;SDS011;5992;52.744;6.898;2023-03-24T03:34:16;1.97;;;1.80;;
11865;SDS011;5992;52.744;6.898;2023-03-24T03:37:41;2.00;;;1.73;;
11865;SDS011;5992;52.744;6.898;2023-03-24T03:41:05;1.50;;;1.40;;
11865;SDS011;5992;52.744;6.898;2023-03-24T03:47:12;2.60;;;2.00;;
11865;SDS011;5992;52.744;6.898;2023-03-24T03:50:37;4.15;;;1.80;;
11865;SDS011;5992;52.744;6.898;2023-03-24T03:53:50;1.33;;;1.27;;
11865;SDS011;5992;52.744;6.898;2023-03-24T03:57:13;5.70;;;1.70;;
11865;SDS011;5992;52.744;6.898;2023-03-24T04:00:25;1.95;;;1.85;;
11865;SDS011;5992;52.744;6.898;2023-03-24T04:03:51;2.27;;;1.73;;
11865;SDS011;5992;52.744;6.898;2023-03-24T04:07:16;1.50;;;1.40;;
11865;SDS011;5992;52.744;6.898;2023-03-24T04:10:57;1.45;;;1.35;;
11865;SDS011;5992;52.744;6.898;2023-03-24T04:14:34;1.63;;;1.53;;
11865;SDS011;5992;52.744;6.898;2023-03-24T04:18:03;1.60;;;1.50;;
11865;SDS011;5992;52.744;6.898;2023-03-24T04:21:29;2.67;;;1.60;;
11865;SDS011;5992;52.744;6.898;2023-03-24T04:24:51;1.20;;;1.20;;
11865;SDS011;5992;52.744;6.898;2023-03-24T04:28:17;1.87;;;1.30;;
11865;SDS011;5992;52.744;6.898;2023-03-24T04:31:42;3.30;;;1.50;;
11865;SDS011;5992;52.744;6.898;2023-03-24T04:38:09;1.20;;;1.20;;
11865;SDS011;5992;52.744;6.898;2023-03-24T04:41:34;1.10;;;1.10;;
11865;SDS011;5992;52.744;6.898;2023-03-24T04:44:58;1.77;;;1.00;;
11865;SDS011;5992;52.744;6.898;2023-03-24T04:48:26;1.80;;;0.90;;
11865;SDS011;5992;52.744;6.898;2023-03-24T04:51:50;1.15;;;1.00;;
11865;SDS011;5992;52.744;6.898;2023-03-24T04:55:28;5.25;;;1.45;;
11865;SDS011;5992;52.744;6.898;2023-03-24T04:58:53;2.35;;;1.10;;
11865;SDS011;5992;52.744;6.898;2023-03-24T05:02:06;3.20;;;1.40;;
11865;SDS011;5992;52.744;6.898;2023-03-24T05:05:07;2.45;;;1.30;;
11865;SDS011;5992;52.744;6.898;2023-03-24T05:08:20;1.27;;;1.17;;
11865;SDS011;5992;52.744;6.898;2023-03-24T05:11:34;1.25;;;1.15;;
11865;SDS011;5992;52.744;6.898;2023-03-24T05:15:03;5.30;;;1.40;;
11865;SDS011;5992;52.744;6.898;2023-03-24T05:18:15;3.05;;;1.30;;
11865;SDS011;5992;52.744;6.898;2023-03-24T05:21:29;3.85;;;1.35;;
11865;SDS011;5992;52.744;6.898;2023-03-24T05:24:53;1.90;;;1.25;;
11865;SDS011;5992;52.744;6.898;2023-03-24T05:28:09;2.53;;;1.20;;
11865;SDS011;5992;52.744;6.898;2023-03-24T05:31:21;2.65;;;1.30;;
11865;SDS011;5992;52.744;6.898;2023-03-24T05:34:34;2.47;;;1.20;;
11865;SDS011;5992;52.744;6.898;2023-03-24T05:37:46;3.13;;;1.40;;
11865;SDS011;5992;52.744;6.898;2023-03-24T05:41:00;2.20;;;1.27;;
11865;SDS011;5992;52.744;6.898;2023-03-24T05:44:13;2.97;;;1.47;;
11865;SDS011;5992;52.744;6.898;2023-03-24T05:47:40;4.67;;;1.53;;
11865;SDS011;5992;52.744;6.898;2023-03-24T05:50:53;2.25;;;1.20;;
11865;SDS011;5992;52.744;6.898;2023-03-24T05:54:21;3.00;;;1.50;;
11865;SDS011;5992;52.744;6.898;2023-03-24T05:57:37;3.60;;;1.20;;
11865;SDS011;5992;52.744;6.898;2023-03-24T06:01:06;2.50;;;1.40;;
11865;SDS011;5992;52.744;6.898;2023-03-24T06:04:31;2.20;;;2.00;;
11865;SDS011;5992;52.744;6.898;2023-03-24T06:07:43;2.20;;;1.80;;
11865;SDS011;5992;52.744;6.898;2023-03-24T06:10:57;2.85;;;1.30;;
11865;SDS011;5992;52.744;6.898;2023-03-24T06:14:22;8.47;;;1.70;;
11865;SDS011;5992;52.744;6.898;2023-03-24T06:17:35;1.87;;;1.60;;
11865;SDS011;5992;52.744;6.898;2023-03-24T06:21:00;2.83;;;1.40;;
11865;SDS011;5992;52.744;6.898;2023-03-24T06:24:13;7.80;;;1.70;;
11865;SDS011;5992;52.744;6.898;2023-03-24T06:30:29;6.93;;;1.80;;
11865;SDS011;5992;52.744;6.898;2023-03-24T06:33:43;6.63;;;1.77;;
11865;SDS011;5992;52.744;6.898;2023-03-24T06:37:07;5.33;;;1.93;;
11865;SDS011;5992;52.744;6.898;2023-03-24T06:40:20;2.13;;;1.40;;
11865;SDS011;5992;52.744;6.898;2023-03-24T06:43:32;4.50;;;1.80;;
11865;SDS011;5992;52.744;6.898;2023-03-24T06:46:56;4.95;;;1.50;;
11865;SDS011;5992;52.744;6.898;2023-03-24T06:50:10;2.15;;;1.40;;
11865;SDS011;5992;52.744;6.898;2023-03-24T06:56:35;4.10;;;2.20;;
11865;SDS011;5992;52.744;6.898;2023-03-24T06:59:51;3.75;;;1.40;;
11865;SDS011;5992;52.744;6.898;2023-03-24T07:03:16;3.45;;;1.40;;
11865;SDS011;5992;52.744;6.898;2023-03-24T07:06:45;2.73;;;1.57;;
11865;SDS011;5992;52.744;6.898;2023-03-24T07:10:13;3.80;;;1.85;;
11865;SDS011;5992;52.744;6.898;2023-03-24T07:13:37;3.53;;;1.97;;
11865;SDS011;5992;52.744;6.898;2023-03-24T07:16:49;5.27;;;1.43;;
11865;SDS011;5992;52.744;6.898;2023-03-24T07:20:02;3.53;;;1.87;;
11865;SDS011;5992;52.744;6.898;2023-03-24T07:23:19;6.73;;;2.13;;
11865;SDS011;5992;52.744;6.898;2023-03-24T07:26:44;4.50;;;2.00;;
11865;SDS011;5992;52.744;6.898;2023-03-24T07:29:56;2.70;;;1.35;;
11865;SDS011;5992;52.744;6.898;2023-03-24T07:33:09;7.65;;;2.20;;
11865;SDS011;5992;52.744;6.898;2023-03-24T07:36:10;7.60;;;1.70;;
11865;SDS011;5992;52.744;6.898;2023-03-24T07:39:26;6.30;;;1.77;;
11865;SDS011;5992;52.744;6.898;2023-03-24T07:42:38;9.40;;;1.40;;
11865;SDS011;5992;52.744;6.898;2023-03-24T07:46:04;8.67;;;2.17;;
11865;SDS011;5992;52.744;6.898;2023-03-24T07:49:05;10.10;;;2.15;;
11865;SDS011;5992;52.744;6.898;2023-03-24T07:52:30;7.35;;;1.80;;
11865;SDS011;5992;52.744;6.898;2023-03-24T07:55:31;4.87;;;1.63;;
11865;SDS011;5992;52.744;6.898;2023-03-24T07:58:57;6.30;;;1.97;;
11865;SDS011;5992;52.744;6.898;2023-03-24T08:02:10;10.80;;;1.87;;
11865;SDS011;5992;52.744;6.898;2023-03-24T08:05:36;3.93;;;1.60;;
11865;SDS011;5992;52.744;6.898;2023-03-24T08:08:48;4.07;;;1.97;;
11865;SDS011;5992;52.744;6.898;2023-03-24T08:12:02;4.90;;;1.67;;
11865;SDS011;5992;52.744;6.898;2023-03-24T08:15:15;8.53;;;2.50;;
11865;SDS011;5992;52.744;6.898;2023-03-24T08:18:39;10.97;;;2.13;;
11865;SDS011;5992;52.744;6.898;2023-03-24T08:21:51;6.07;;;1.47;;
11865;SDS011;5992;52.744;6.898;2023-03-24T08:25:05;5.45;;;1.60;;
11865;SDS011;5992;52.744;6.898;2023-03-24T08:28:07;10.25;;;2.40;;
11865;SDS011;5992;52.744;6.898;2023-03-24T08:31:33;8.73;;;2.97;;
11865;SDS011;5992;52.744;6.898;2023-03-24T08:37:43;9.33;;;2.03;;
11865;SDS011;5992;52.744;6.898;2023-03-24T08:40:59;7.57;;;2.17;;
11865;SDS011;5992;52.744;6.898;2023-03-24T08:44:27;4.87;;;1.93;;
11865;SDS011;5992;52.744;6.898;2023-03-24T08:47:41;11.35;;;2.95;;
11865;SDS011;5992;52.744;6.898;2023-03-24T08:50:53;9.00;;;2.37;;
11865;SDS011;5992;52.744;6.898;2023-03-24T08:54:05;12.87;;;2.37;;
11865;SDS011;5992;52.744;6.898;2023-03-24T08:57:29;10.05;;;2.80;;
11865;SDS011;5992;52.744;6.898;2023-03-24T09:00:43;11.03;;;1.87;;
11865;SDS011;5992;52.744;6.898;2023-03-24T09:03:56;8.65;;;2.30;;
11865;SDS011;5992;52.744;6.898;2023-03-24T09:06:56;5.45;;;1.75;;
11865;SDS011;5992;52.744;6.898;2023-03-24T09:12:59;7.33;;;2.17;;
11865;SDS011;5992;52.744;6.898;2023-03-24T09:16:14;8.85;;;2.10;;
11865;SDS011;5992;52.744;6.898;2023-03-24T09:19:26;8.13;;;2.50;;
11865;SDS011;5992;52.744;6.898;2023-03-24T09:22:39;5.07;;;1.70;;
11865;SDS011;5992;52.744;6.898;2023-03-24T09:29:07;10.97;;;2.37;;
11865;SDS011;5992;52.744;6.898;2023-03-24T09:32:09;7.80;;;1.87;;
11865;SDS011;5992;52.744;6.898;2023-03-24T09:38:45;10.07;;;2.13;;
11865;SDS011;5992;52.744;6.898;2023-03-24T09:41:57;8.50;;;1.90;;
11865;SDS011;5992;52.744;6.898;2023-03-24T09:48:35;9.07;;;2.13;;
11865;SDS011;5992;52.744;6.898;2023-03-24T09:51:47;4.63;;;1.90;;
11865;SDS011;5992;52.744;6.898;2023-03-24T09:55:13;10.30;;;2.73;;
11865;SDS011;5992;52.744;6.898;2023-03-24T10:01:48;12.07;;;2.70;;
11865;SDS011;5992;52.744;6.898;2023-03-24T10:05:05;9.25;;;2.10;;
11865;SDS011;5992;52.744;6.898;2023-03-24T10:08:18;6.95;;;2.40;;
11865;SDS011;5992;52.744;6.898;2023-03-24T10:11:44;5.60;;;2.40;;
11865;SDS011;5992;52.744;6.898;2023-03-24T10:18:22;6.33;;;1.70;;
11865;SDS011;5992;52.744;6.898;2023-03-24T10:21:35;5.37;;;1.87;;
11865;SDS011;5992;52.744;6.898;2023-03-24T10:25:05;5.33;;;1.80;;
11865;SDS011;5992;52.744;6.898;2023-03-24T10:28:24;12.80;;;2.20;;
11865;SDS011;5992;52.744;6.898;2023-03-24T10:31:51;8.63;;;2.20;;
11865;SDS011;5992;52.744;6.898;2023-03-24T10:35:02;5.63;;;2.00;;
11865;SDS011;5992;52.744;6.898;2023-03-24T10:38:49;7.23;;;2.03;;
11865;SDS011;5992;52.744;6.898;2023-03-24T10:42:23;5.27;;;1.47;;
11865;SDS011;5992;52.744;6.898;2023-03-24T10:45:47;7.47;;;2.20;;
11865;SDS011;5992;52.744;6.898;2023-03-24T10:49:06;9.50;;;2.03;;
11865;SDS011;5992;52.744;6.898;2023-03-24T10:52:31;7.00;;;2.27;;
11865;SDS011;5992;52.744;6.898;2023-03-24T10:55:49;5.35;;;1.70;;
11865;SDS011;5992;52.744;6.898;2023-03-24T10:59:18;7.17;;;2.43;;
11865;SDS011;5992;52.744;6.898;2023-03-24T11:02:30;7.83;;;2.67;;
11865;SDS011;5992;52.744;6.898;2023-03-24T11:06:01;8.63;;;2.20;;
11865;SDS011;5992;52.744;6.898;2023-03-24T11:09:17;11.60;;;2.35;;
11865;SDS011;5992;52.744;6.898;2023-03-24T11:12:59;5.93;;;2.13;;
11865;SDS011;5992;52.744;6.898;2023-03-24T11:16:11;5.17;;;1.83;;
11865;SDS011;5992;52.744;6.898;2023-03-24T11:19:35;10.73;;;2.40;;
11865;SDS011;5992;52.744;6.898;2023-03-24T11:22:36;7.50;;;1.85;;
11865;SDS011;5992;52.744;6.898;2023-03-24T11:26:04;8.80;;;2.10;;
11865;SDS011;5992;52.744;6.898;2023-03-24T11:29:17;4.30;;;2.10;;
11865;SDS011;5992;52.744;6.898;2023-03-24T11:32:44;3.75;;;1.85;;
11865;SDS011;5992;52.744;6.898;2023-03-24T11:35:56;5.70;;;1.73;;
11865;SDS011;5992;52.744;6.898;2023-03-24T11:39:21;7.70;;;1.80;;
11865;SDS011;5992;52.744;6.898;2023-03-24T11:42:33;6.35;;;1.60;;
11865;SDS011;5992;52.744;6.898;2023-03-24T11:45:49;6.20;;;1.93;;
11865;SDS011;5992;52.744;6.898;2023-03-24T11:49:00;4.57;;;1.50;;
11865;SDS011;5992;52.744;6.898;2023-03-24T11:52:25;6.20;;;1.67;;
11865;SDS011;5992;52.744;6.898;2023-03-24T11:55:37;3.80;;;1.60;;
11865;SDS011;5992;52.744;6.898;2023-03-24T11:59:02;4.20;;;1.60;;
11865;SDS011;5992;52.744;6.898;2023-03-24T12:02:19;7.10;;;2.20;;
11865;SDS011;5992;52.744;6.898;2023-03-24T12:05:49;3.95;;;1.50;;
11865;SDS011;5992;52.744;6.898;2023-03-24T12:09:07;4.20;;;1.63;;
11865;SDS011;5992;52.744;6.898;2023-03-24T12:12:34;5.70;;;1.77;;
11865;SDS011;5992;52.744;6.898;2023-03-24T12:15:54;4.13;;;1.57;;
11865;SDS011;5992;52.744;6.898;2023-03-24T12:19:29;8.23;;;1.63;;
11865;SDS011;5992;52.744;6.898;2023-03-24T12:22:44;6.70;;;2.20;;
11865;SDS011;5992;52.744;6.898;2023-03-24T12:26:15;3.73;;;1.37;;
11865;SDS011;5992;52.744;6.898;2023-03-24T12:33:00;7.33;;;2.40;;
11865;SDS011;5992;52.744;6.898;2023-03-24T12:36:21;4.20;;;1.60;;
11865;SDS011;5992;52.744;6.898;2023-03-24T12:39:49;3.90;;;1.60;;
11865;SDS011;5992;52.744;6.898;2023-03-24T12:43:00;5.10;;;2.15;;
11865;SDS011;5992;52.744;6.898;2023-03-24T12:46:27;5.75;;;1.60;;
11865;SDS011;5992;52.744;6.898;2023-03-24T12:52:54;3.73;;;1.33;;
11865;SDS011;5992;52.744;6.898;2023-03-24T12:56:07;6.83;;;2.13;;
11865;SDS011;5992;52.744;6.898;2023-03-24T12:59:32;3.45;;;1.50;;
11865;SDS011;5992;52.744;6.898;2023-03-24T13:02:47;6.30;;;2.20;;
11865;SDS011;5992;52.744;6.898;2023-03-24T13:06:15;2.60;;;1.00;;
11865;SDS011;5992;52.744;6.898;2023-03-24T13:09:33;5.07;;;1.70;;
11865;SDS011;5992;52.744;6.898;2023-03-24T13:12:57;3.47;;;1.30;;
11865;SDS011;5992;52.744;6.898;2023-03-24T13:16:07;5.83;;;1.97;;
11865;SDS011;5992;52.744;6.898;2023-03-24T13:19:31;5.20;;;2.55;;
11865;SDS011;5992;52.744;6.898;2023-03-24T13:22:44;2.90;;;1.37;;
11865;SDS011;5992;52.744;6.898;2023-03-24T13:26:04;6.43;;;1.70;;
11865;SDS011;5992;52.744;6.898;2023-03-24T13:29:24;7.17;;;1.83;;
11865;SDS011;5992;52.744;6.898;2023-03-24T13:32:51;5.93;;;1.83;;
11865;SDS011;5992;52.744;6.898;2023-03-24T13:36:07;5.57;;;1.70;;
11865;SDS011;5992;52.744;6.898;2023-03-24T13:39:32;4.80;;;1.50;;
11865;SDS011;5992;52.744;6.898;2023-03-24T13:42:46;5.15;;;1.75;;
11865;SDS011;5992;52.744;6.898;2023-03-24T13:46:11;4.50;;;1.47;;
11865;SDS011;5992;52.744;6.898;2023-03-24T13:49:22;2.95;;;1.30;;
11865;SDS011;5992;52.744;6.898;2023-03-24T13:52:47;3.83;;;1.60;;
11865;SDS011;5992;52.744;6.898;2023-03-24T13:55:58;5.47;;;1.60;;
11865;SDS011;5992;52.744;6.898;2023-03-24T13:59:25;2.95;;;1.50;;
11865;SDS011;5992;52.744;6.898;2023-03-24T14:02:47;3.97;;;1.77;;
11865;SDS011;5992;52.744;6.898;2023-03-24T14:06:14;3.93;;;1.27;;
11865;SDS011;5992;52.744;6.898;2023-03-24T14:09:26;1.57;;;1.07;;
11865;SDS011;5992;52.744;6.898;2023-03-24T14:12:51;4.17;;;1.40;;
11865;SDS011;5992;52.744;6.898;2023-03-24T14:19:31;3.55;;;1.40;;
11865;SDS011;5992;52.744;6.898;2023-03-24T14:22:43;3.23;;;1.63;;
11865;SDS011;5992;52.744;6.898;2023-03-24T14:26:12;2.10;;;1.40;;
11865;SDS011;5992;52.744;6.898;2023-03-24T14:29:39;4.07;;;1.90;;
11865;SDS011;5992;52.744;6.898;2023-03-24T14:33:19;2.20;;;1.30;;
11865;SDS011;5992;52.744;6.898;2023-03-24T14:36:23;3.63;;;1.37;;
11865;SDS011;5992;52.744;6.898;2023-03-24T14:39:51;2.50;;;1.40;;
11865;SDS011;5992;52.744;6.898;2023-03-24T14:43:15;3.67;;;1.30;;
11865;SDS011;5992;52.744;6.898;2023-03-24T14:46:40;1.67;;;1.33;;
11865;SDS011;5992;52.744;6.898;2023-03-24T14:49:53;2.55;;;1.20;;
11865;SDS011;5992;52.744;6.898;2023-03-24T14:53:18;4.60;;;1.53;;
11865;SDS011;5992;52.744;6.898;2023-03-24T14:56:32;2.53;;;1.30;;
11865;SDS011;5992;52.744;6.898;2023-03-24T14:59:57;1.50;;;1.23;;
11865;SDS011;5992;52.744;6.898;2023-03-24T15:03:13;2.65;;;1.50;;
11865;SDS011;5992;52.744;6.898;2023-03-24T15:06:41;5.20;;;1.50;;
11865;SDS011;5992;52.744;6.898;2023-03-24T15:09:55;3.17;;;1.40;;
11865;SDS011;5992;52.744;6.898;2023-03-24T15:13:33;3.90;;;1.50;;
11865;SDS011;5992;52.744;6.898;2023-03-24T15:16:49;3.70;;;1.40;;
11865;SDS011;5992;52.744;6.898;2023-03-24T15:20:20;4.80;;;1.80;;
11865;SDS011;5992;52.744;6.898;2023-03-24T15:23:32;6.00;;;1.75;;
11865;SDS011;5992;52.744;6.898;2023-03-24T15:26:47;2.70;;;1.20;;
11865;SDS011;5992;52.744;6.898;2023-03-24T15:29:59;2.80;;;1.20;;
11865;SDS011;5992;52.744;6.898;2023-03-24T15:33:23;4.55;;;1.65;;
11865;SDS011;5992;52.744;6.898;2023-03-24T15:36:38;3.03;;;1.60;;
11865;SDS011;5992;52.744;6.898;2023-03-24T15:40:01;2.15;;;1.30;;
11865;SDS011;5992;52.744;6.898;2023-03-24T15:43:05;4.03;;;1.57;;
11865;SDS011;5992;52.744;6.898;2023-03-24T15:49:45;2.03;;;1.10;;
11865;SDS011;5992;52.744;6.898;2023-03-24T15:53:21;2.85;;;1.30;;
11865;SDS011;5992;52.744;6.898;2023-03-24T16:00:03;3.80;;;1.37;;
11865;SDS011;5992;52.744;6.898;2023-03-24T16:03:29;3.13;;;1.00;;
11865;SDS011;5992;52.744;6.898;2023-03-24T16:09:54;3.60;;;1.10;;
11865;SDS011;5992;52.744;6.898;2023-03-24T16:13:11;3.27;;;1.30;;
11865;SDS011;5992;52.744;6.898;2023-03-24T16:16:36;1.90;;;1.13;;
11865;SDS011;5992;52.744;6.898;2023-03-24T16:19:52;2.90;;;1.40;;
11865;SDS011;5992;52.744;6.898;2023-03-24T16:23:20;0.83;;;0.80;;
11865;SDS011;5992;52.744;6.898;2023-03-24T16:26:21;2.73;;;1.33;;
11865;SDS011;5992;52.744;6.898;2023-03-24T16:29:44;3.10;;;1.30;;
11865;SDS011;5992;52.744;6.898;2023-03-24T16:32:46;2.20;;;1.30;;
11865;SDS011;5992;52.744;6.898;2023-03-24T16:36:11;1.63;;;1.00;;
11865;SDS011;5992;52.744;6.898;2023-03-24T16:39:24;5.50;;;1.40;;
11865;SDS011;5992;52.744;6.898;2023-03-24T16:42:52;1.40;;;1.20;;
11865;SDS011;5992;52.744;6.898;2023-03-24T16:46:03;2.75;;;1.15;;
11865;SDS011;5992;52.744;6.898;2023-03-24T16:49:31;1.00;;;0.80;;
11865;SDS011;5992;52.744;6.898;2023-03-24T16:52:47;2.90;;;1.13;;
11865;SDS011;5992;52.744;6.898;2023-03-24T16:55:59;2.50;;;1.00;;
11865;SDS011;5992;52.744;6.898;2023-03-24T16:58:59;1.05;;;0.95;;
11865;SDS011;5992;52.744;6.898;2023-03-24T17:05:25;1.67;;;1.07;;
11865;SDS011;5992;52.744;6.898;2023-03-24T17:08:49;3.93;;;1.27;;
11865;SDS011;5992;52.744;6.898;2023-03-24T17:11:52;4.20;;;1.30;;
11865;SDS011;5992;52.744;6.898;2023-03-24T17:15:19;1.93;;;0.90;;
11865;SDS011;5992;52.744;6.898;2023-03-24T17:18:31;2.47;;;1.20;;
11865;SDS011;5992;52.744;6.898;2023-03-24T17:21:46;3.47;;;1.00;;
11865;SDS011;5992;52.744;6.898;2023-03-24T17:24:57;5.27;;;1.13;;
11865;SDS011;5992;52.744;6.898;2023-03-24T17:28:13;1.70;;;1.30;;
11865;SDS011;5992;52.744;6.898;2023-03-24T17:31:25;2.50;;;1.07;;
11865;SDS011;5992;52.744;6.898;2023-03-24T17:34:38;4.23;;;1.13;;
11865;SDS011;5992;52.744;6.898;2023-03-24T17:37:51;3.47;;;1.73;;
11865;SDS011;5992;52.744;6.898;2023-03-24T17:41:15;2.10;;;0.90;;
11865;SDS011;5992;52.744;6.898;2023-03-24T17:44:15;1.73;;;1.00;;
11865;SDS011;5992;52.744;6.898;2023-03-24T17:47:29;1.27;;;0.50;;
11865;SDS011;5992;52.744;6.898;2023-03-24T17:50:41;2.50;;;1.00;;
11865;SDS011;5992;52.744;6.898;2023-03-24T17:53:54;1.90;;;0.90;;
11865;SDS011;5992;52.744;6.898;2023-03-24T17:57:07;1.85;;;0.90;;
11865;SDS011;5992;52.744;6.898;2023-03-24T18:00:31;1.57;;;0.80;;
11865;SDS011;5992;52.744;6.898;2023-03-24T18:03:43;2.30;;;0.83;;
11865;SDS011;5992;52.744;6.898;2023-03-24T18:06:55;3.67;;;1.10;;
11865;SDS011;5992;52.744;6.898;2023-03-24T18:10:09;1.60;;;0.75;;
11865;SDS011;5992;52.744;6.898;2023-03-24T18:13:21;2.23;;;1.00;;
11865;SDS011;5992;52.744;6.898;2023-03-24T18:16:33;5.30;;;0.90;;
11865;SDS011;5992;52.744;6.898;2023-03-24T18:19:48;3.07;;;0.87;;
11865;SDS011;5992;52.744;6.898;2023-03-24T18:23:01;2.20;;;1.10;;
11865;SDS011;5992;52.744;6.898;2023-03-24T18:26:03;2.73;;;1.10;;
11865;SDS011;5992;52.744;6.898;2023-03-24T18:29:28;3.15;;;1.05;;
11865;SDS011;5992;52.744;6.898;2023-03-24T18:32:44;1.37;;;0.70;;
11865;SDS011;5992;52.744;6.898;2023-03-24T18:35:57;3.55;;;1.20;;
11865;SDS011;5992;52.744;6.898;2023-03-24T18:38:57;0.63;;;0.63;;
11865;SDS011;5992;52.744;6.898;2023-03-24T18:42:22;2.03;;;1.03;;
11865;SDS011;5992;52.744;6.898;2023-03-24T18:45:35;1.27;;;0.80;;
11865;SDS011;5992;52.744;6.898;2023-03-24T18:48:47;2.07;;;1.00;;
11865;SDS011;5992;52.744;6.898;2023-03-24T18:52:03;3.60;;;1.10;;
11865;SDS011;5992;52.744;6.898;2023-03-24T18:55:30;1.40;;;0.90;;
11865;SDS011;5992;52.744;6.898;2023-03-24T18:58:31;3.10;;;1.07;;
11865;SDS011;5992;52.744;6.898;2023-03-24T19:01:58;2.30;;;1.20;;
11865;SDS011;5992;52.744;6.898;2023-03-24T19:04:59;2.97;;;1.10;;
11865;SDS011;5992;52.744;6.898;2023-03-24T19:08:12;2.50;;;0.80;;
11865;SDS011;5992;52.744;6.898;2023-03-24T19:11:13;5.10;;;1.25;;
11865;SDS011;5992;52.744;6.898;2023-03-24T19:14:43;2.33;;;1.17;;
11865;SDS011;5992;52.744;6.898;2023-03-24T19:17:59;1.50;;;1.00;;
11865;SDS011;5992;52.744;6.898;2023-03-24T19:21:15;4.63;;;1.30;;
11865;SDS011;5992;52.744;6.898;2023-03-24T19:24:27;0.97;;;0.80;;
11865;SDS011;5992;52.744;6.898;2023-03-24T19:27:43;0.93;;;0.77;;
11865;SDS011;5992;52.744;6.898;2023-03-24T19:31:04;3.60;;;1.50;;
11865;SDS011;5992;52.744;6.898;2023-03-24T19:34:24;3.90;;;1.43;;
11865;SDS011;5992;52.744;6.898;2023-03-24T19:37:25;1.40;;;1.30;;
11865;SDS011;5992;52.744;6.898;2023-03-24T19:40:38;3.80;;;1.33;;
11865;SDS011;5992;52.744;6.898;2023-03-24T19:43:50;3.20;;;1.03;;
11865;SDS011;5992;52.744;6.898;2023-03-24T19:47:15;3.60;;;1.40;;
11865;SDS011;5992;52.744;6.898;2023-03-24T19:50:28;1.20;;;1.00;;
11865;SDS011;5992;52.744;6.898;2023-03-24T19:53:41;2.30;;;1.40;;
11865;SDS011;5992;52.744;6.898;2023-03-24T19:56:41;2.35;;;1.05;;
11865;SDS011;5992;52.744;6.898;2023-03-24T20:03:00;5.73;;;1.83;;
11865;SDS011;5992;52.744;6.898;2023-03-24T20:06:12;3.40;;;1.40;;
11865;SDS011;5992;52.744;6.898;2023-03-24T20:09:24;1.27;;;1.17;;
11865;SDS011;5992;52.744;6.898;2023-03-24T20:15:20;2.40;;;1.52;;
11865;SDS011;5992;52.744;6.898;2023-03-24T20:18:44;1.80;;;1.50;;
11865;SDS011;5992;52.744;6.898;2023-03-24T20:21:57;2.33;;;1.50;;
11865;SDS011;5992;52.744;6.898;2023-03-24T20:25:10;1.40;;;1.30;;
11865;SDS011;5992;52.744;6.898;2023-03-24T20:28:26;1.65;;;1.45;;
11865;SDS011;5992;52.744;6.898;2023-03-24T20:31:55;2.30;;;1.40;;
11865;SDS011;5992;52.744;6.898;2023-03-24T20:38:29;5.13;;;1.93;;
11865;SDS011;5992;52.744;6.898;2023-03-24T20:41:41;1.45;;;1.30;;
11865;SDS011;5992;52.744;6.898;2023-03-24T20:44:53;2.07;;;1.20;;
11865;SDS011;5992;52.744;6.898;2023-03-24T20:47:55;2.00;;;1.50;;
11865;SDS011;5992;52.744;6.898;2023-03-24T20:51:19;1.73;;;1.50;;
11865;SDS011;5992;52.744;6.898;2023-03-24T20:54:31;2.90;;;2.03;;
11865;SDS011;5992;52.744;6.898;2023-03-24T20:57:43;3.60;;;2.00;;
11865;SDS011;5992;52.744;6.898;2023-03-24T21:00:45;4.17;;;2.00;;
11865;SDS011;5992;52.744;6.898;2023-03-24T21:04:10;1.83;;;1.73;;
11865;SDS011;5992;52.744;6.898;2023-03-24T21:07:22;2.45;;;1.75;;
11865;SDS011;5992;52.744;6.898;2023-03-24T21:10:35;2.13;;;1.60;;
11865;SDS011;5992;52.744;6.898;2023-03-24T21:13:50;1.95;;;1.70;;
11865;SDS011;5992;52.744;6.898;2023-03-24T21:17:07;4.10;;;1.40;;
11865;SDS011;5992;52.744;6.898;2023-03-24T21:20:11;1.80;;;1.70;;
11865;SDS011;5992;52.744;6.898;2023-03-24T21:23:37;3.73;;;1.70;;
11865;SDS011;5992;52.744;6.898;2023-03-24T21:26:49;5.23;;;1.87;;
11865;SDS011;5992;52.744;6.898;2023-03-24T21:30:13;1.90;;;1.40;;
11865;SDS011;5992;52.744;6.898;2023-03-24T21:36:27;3.00;;;1.50;;